sensor_id;sensor_type;location;lat;lon;timestamp;temperature;humidity
43842;DHT22;29495;49.970;20.842;2022-09-09T00:01:35;19.50;99.90
43842;DHT22;29495;49.970;20.842;2022-09-09T00:04:15;19.50;99.90
43842;DHT22;29495;49.970;20.842;2022-09-09T00:15:25;19.60;99.90
43842;DHT22;29495;49.970;20.842;2022-09-09T00:17:58;19.60;99.90
43842;DHT22;29495;49.970;20.842;2022-09-09T00:20:46;19.70;99.90
43842;DHT22;29495;49.970;20.842;2022-09-09T00:23:29;19.60;99.90
43842;DHT22;29495;49.970;20.842;2022-09-09T00:28:35;19.40;99.90
43842;DHT22;29495;49.970;20.842;2022-09-09T00:31:24;19.50;99.90
43842;DHT22;29495;49.970;20.842;2022-09-09T00:33:53;19.60;99.90
43842;DHT22;29495;49.970;20.842;2022-09-09T00:36:24;19.80;99.90
43842;DHT22;29495;49.970;20.842;2022-09-09T00:38:59;19.70;99.90
43842;DHT22;29495;49.970;20.842;2022-09-09T00:47:09;19.60;99.90
43842;DHT22;29495;49.970;20.842;2022-09-09T00:58:31;19.70;99.90
43842;DHT22;29495;49.970;20.842;2022-09-09T01:01:11;19.70;99.90
43842;DHT22;29495;49.970;20.842;2022-09-09T01:03:55;19.70;99.90
43842;DHT22;29495;49.970;20.842;2022-09-09T01:06:33;19.70;99.90
43842;DHT22;29495;49.970;20.842;2022-09-09T01:12:16;19.80;99.90
43842;DHT22;29495;49.970;20.842;2022-09-09T01:15:10;19.80;99.90
43842;DHT22;29495;49.970;20.842;2022-09-09T01:17:48;19.80;99.90
43842;DHT22;29495;49.970;20.842;2022-09-09T01:28:47;19.40;99.90
43842;DHT22;29495;49.970;20.842;2022-09-09T01:31:20;19.30;99.90
43842;DHT22;29495;49.970;20.842;2022-09-09T01:33:47;19.30;99.90
43842;DHT22;29495;49.970;20.842;2022-09-09T01:36:21;19.20;99.90
43842;DHT22;29495;49.970;20.842;2022-09-09T01:38:52;19.30;99.90
43842;DHT22;29495;49.970;20.842;2022-09-09T01:41:18;19.30;99.90
43842;DHT22;29495;49.970;20.842;2022-09-09T01:44:20;19.30;99.90
43842;DHT22;29495;49.970;20.842;2022-09-09T01:46:47;19.30;99.90
43842;DHT22;29495;49.970;20.842;2022-09-09T01:49:18;19.20;99.90
43842;DHT22;29495;49.970;20.842;2022-09-09T01:51:49;19.10;99.90
43842;DHT22;29495;49.970;20.842;2022-09-09T01:54:16;19.10;99.90
43842;DHT22;29495;49.970;20.842;2022-09-09T01:56:55;19.10;99.90
43842;DHT22;29495;49.970;20.842;2022-09-09T01:59:47;19.00;99.90
43842;DHT22;29495;49.970;20.842;2022-09-09T02:02:19;19.00;99.90
43842;DHT22;29495;49.970;20.842;2022-09-09T02:07:41;19.00;99.90
43842;DHT22;29495;49.970;20.842;2022-09-09T02:10:33;19.00;99.90
43842;DHT22;29495;49.970;20.842;2022-09-09T02:13:16;18.90;99.90
43842;DHT22;29495;49.970;20.842;2022-09-09T02:18:56;18.80;99.90
43842;DHT22;29495;49.970;20.842;2022-09-09T02:21:33;18.80;99.90
43842;DHT22;29495;49.970;20.842;2022-09-09T02:24:04;18.70;99.90
43842;DHT22;29495;49.970;20.842;2022-09-09T02:26:35;18.70;99.90
43842;DHT22;29495;49.970;20.842;2022-09-09T02:29:09;18.70;99.90
43842;DHT22;29495;49.970;20.842;2022-09-09T02:31:38;18.70;99.90
43842;DHT22;29495;49.970;20.842;2022-09-09T02:34:11;18.60;99.90
43842;DHT22;29495;49.970;20.842;2022-09-09T02:36:40;18.60;99.90
43842;DHT22;29495;49.970;20.842;2022-09-09T02:39:10;18.60;99.90
43842;DHT22;29495;49.970;20.842;2022-09-09T02:41:40;18.60;99.90
43842;DHT22;29495;49.970;20.842;2022-09-09T02:44:13;18.70;99.90
43842;DHT22;29495;49.970;20.842;2022-09-09T02:55:38;18.70;99.90
43842;DHT22;29495;49.970;20.842;2022-09-09T02:58:09;18.70;99.90
43842;DHT22;29495;49.970;20.842;2022-09-09T03:00:38;18.60;99.90
43842;DHT22;29495;49.970;20.842;2022-09-09T03:03:07;18.70;99.90
43842;DHT22;29495;49.970;20.842;2022-09-09T03:05:34;18.60;99.90
43842;DHT22;29495;49.970;20.842;2022-09-09T03:08:02;18.60;99.90
43842;DHT22;29495;49.970;20.842;2022-09-09T03:10:29;18.60;99.90
43842;DHT22;29495;49.970;20.842;2022-09-09T03:12:55;18.60;99.90
43842;DHT22;29495;49.970;20.842;2022-09-09T03:15:21;18.60;99.90
43842;DHT22;29495;49.970;20.842;2022-09-09T03:17:47;18.50;99.90
43842;DHT22;29495;49.970;20.842;2022-09-09T03:20:14;18.60;99.90
43842;DHT22;29495;49.970;20.842;2022-09-09T03:22:40;18.40;99.90
43842;DHT22;29495;49.970;20.842;2022-09-09T03:25:06;18.40;99.90
43842;DHT22;29495;49.970;20.842;2022-09-09T03:27:35;18.40;99.90
43842;DHT22;29495;49.970;20.842;2022-09-09T03:30:03;18.40;99.90
43842;DHT22;29495;49.970;20.842;2022-09-09T03:32:29;18.30;99.90
43842;DHT22;29495;49.970;20.842;2022-09-09T03:34:57;18.40;99.90
43842;DHT22;29495;49.970;20.842;2022-09-09T03:37:23;18.50;99.90
43842;DHT22;29495;49.970;20.842;2022-09-09T03:39:50;18.50;99.90
43842;DHT22;29495;49.970;20.842;2022-09-09T03:42:18;18.50;99.90
43842;DHT22;29495;49.970;20.842;2022-09-09T03:44:48;18.30;99.90
43842;DHT22;29495;49.970;20.842;2022-09-09T03:47:21;18.30;99.90
43842;DHT22;29495;49.970;20.842;2022-09-09T03:49:48;18.20;99.90
43842;DHT22;29495;49.970;20.842;2022-09-09T03:52:15;18.20;99.90
43842;DHT22;29495;49.970;20.842;2022-09-09T03:54:42;18.20;99.90
43842;DHT22;29495;49.970;20.842;2022-09-09T03:57:09;18.20;99.90
43842;DHT22;29495;49.970;20.842;2022-09-09T03:59:35;18.10;99.90
43842;DHT22;29495;49.970;20.842;2022-09-09T04:02:03;18.10;99.90
43842;DHT22;29495;49.970;20.842;2022-09-09T04:04:29;18.10;99.90
43842;DHT22;29495;49.970;20.842;2022-09-09T04:06:56;18.00;99.90
43842;DHT22;29495;49.970;20.842;2022-09-09T04:09:22;17.90;99.90
43842;DHT22;29495;49.970;20.842;2022-09-09T04:11:50;17.90;99.90
43842;DHT22;29495;49.970;20.842;2022-09-09T04:14:17;17.80;99.90
43842;DHT22;29495;49.970;20.842;2022-09-09T04:16:43;17.80;99.90
43842;DHT22;29495;49.970;20.842;2022-09-09T04:19:11;17.70;99.90
43842;DHT22;29495;49.970;20.842;2022-09-09T04:21:43;17.70;99.90
43842;DHT22;29495;49.970;20.842;2022-09-09T04:24:09;17.50;99.90
43842;DHT22;29495;49.970;20.842;2022-09-09T04:26:36;17.50;99.90
43842;DHT22;29495;49.970;20.842;2022-09-09T04:29:05;17.40;99.90
43842;DHT22;29495;49.970;20.842;2022-09-09T04:31:34;17.40;99.90
43842;DHT22;29495;49.970;20.842;2022-09-09T04:34:00;17.40;99.90
43842;DHT22;29495;49.970;20.842;2022-09-09T04:36:34;17.40;99.90
43842;DHT22;29495;49.970;20.842;2022-09-09T04:39:03;17.30;99.90
43842;DHT22;29495;49.970;20.842;2022-09-09T04:41:29;17.40;99.90
43842;DHT22;29495;49.970;20.842;2022-09-09T04:43:57;17.30;99.90
43842;DHT22;29495;49.970;20.842;2022-09-09T04:46:23;17.40;99.90
43842;DHT22;29495;49.970;20.842;2022-09-09T04:48:50;17.30;99.90
43842;DHT22;29495;49.970;20.842;2022-09-09T04:51:18;17.30;99.90
43842;DHT22;29495;49.970;20.842;2022-09-09T04:53:46;17.30;99.90
43842;DHT22;29495;49.970;20.842;2022-09-09T04:56:17;17.50;99.90
43842;DHT22;29495;49.970;20.842;2022-09-09T04:58:51;17.50;99.90
43842;DHT22;29495;49.970;20.842;2022-09-09T05:01:19;17.50;99.90
43842;DHT22;29495;49.970;20.842;2022-09-09T05:03:49;17.80;99.90
43842;DHT22;29495;49.970;20.842;2022-09-09T05:06:20;18.30;99.90
43842;DHT22;29495;49.970;20.842;2022-09-09T05:08:49;18.80;99.90
43842;DHT22;29495;49.970;20.842;2022-09-09T05:11:22;19.60;99.90
43842;DHT22;29495;49.970;20.842;2022-09-09T05:13:52;20.20;99.90
43842;DHT22;29495;49.970;20.842;2022-09-09T05:16:19;20.50;99.90
43842;DHT22;29495;49.970;20.842;2022-09-09T05:18:46;20.60;99.90
43842;DHT22;29495;49.970;20.842;2022-09-09T05:21:13;20.50;99.90
43842;DHT22;29495;49.970;20.842;2022-09-09T05:23:40;20.60;99.90
43842;DHT22;29495;49.970;20.842;2022-09-09T05:26:09;21.00;99.90
43842;DHT22;29495;49.970;20.842;2022-09-09T05:28:35;21.30;99.90
43842;DHT22;29495;49.970;20.842;2022-09-09T05:31:07;21.70;99.90
43842;DHT22;29495;49.970;20.842;2022-09-09T05:33:40;21.90;99.90
43842;DHT22;29495;49.970;20.842;2022-09-09T05:36:09;22.50;99.90
43842;DHT22;29495;49.970;20.842;2022-09-09T05:38:36;22.90;99.90
43842;DHT22;29495;49.970;20.842;2022-09-09T05:41:04;23.30;99.90
43842;DHT22;29495;49.970;20.842;2022-09-09T05:43:30;24.00;99.90
43842;DHT22;29495;49.970;20.842;2022-09-09T05:46:00;24.30;99.90
43842;DHT22;29495;49.970;20.842;2022-09-09T05:48:31;24.40;99.90
43842;DHT22;29495;49.970;20.842;2022-09-09T05:50:58;24.60;99.90
43842;DHT22;29495;49.970;20.842;2022-09-09T05:53:29;24.60;99.90
43842;DHT22;29495;49.970;20.842;2022-09-09T05:56:07;24.80;99.90
43842;DHT22;29495;49.970;20.842;2022-09-09T05:58:37;24.80;99.90
43842;DHT22;29495;49.970;20.842;2022-09-09T06:01:14;24.40;99.90
43842;DHT22;29495;49.970;20.842;2022-09-09T06:03:42;24.30;99.90
43842;DHT22;29495;49.970;20.842;2022-09-09T06:06:11;24.60;99.90
43842;DHT22;29495;49.970;20.842;2022-09-09T06:08:40;24.00;99.90
43842;DHT22;29495;49.970;20.842;2022-09-09T06:11:15;24.10;99.90
43842;DHT22;29495;49.970;20.842;2022-09-09T06:13:42;24.60;99.90
43842;DHT22;29495;49.970;20.842;2022-09-09T06:16:13;24.80;99.90
43842;DHT22;29495;49.970;20.842;2022-09-09T06:18:41;24.80;99.90
43842;DHT22;29495;49.970;20.842;2022-09-09T06:21:14;25.00;99.90
43842;DHT22;29495;49.970;20.842;2022-09-09T06:23:40;25.70;99.90
43842;DHT22;29495;49.970;20.842;2022-09-09T06:26:13;26.90;99.90
43842;DHT22;29495;49.970;20.842;2022-09-09T06:28:40;25.50;99.90
43842;DHT22;29495;49.970;20.842;2022-09-09T06:31:09;25.90;99.90
43842;DHT22;29495;49.970;20.842;2022-09-09T06:33:37;25.40;99.90
43842;DHT22;29495;49.970;20.842;2022-09-09T06:36:14;25.60;99.90
43842;DHT22;29495;49.970;20.842;2022-09-09T06:38:42;25.80;99.90
43842;DHT22;29495;49.970;20.842;2022-09-09T06:41:10;24.50;99.90
43842;DHT22;29495;49.970;20.842;2022-09-09T06:43:38;24.30;99.90
43842;DHT22;29495;49.970;20.842;2022-09-09T06:46:08;23.50;99.90
43842;DHT22;29495;49.970;20.842;2022-09-09T06:48:35;23.50;99.90
43842;DHT22;29495;49.970;20.842;2022-09-09T06:51:11;23.10;99.90
43842;DHT22;29495;49.970;20.842;2022-09-09T06:53:39;22.60;99.90
43842;DHT22;29495;49.970;20.842;2022-09-09T06:56:28;22.40;99.90
43842;DHT22;29495;49.970;20.842;2022-09-09T06:58:58;22.40;99.90
43842;DHT22;29495;49.970;20.842;2022-09-09T07:01:29;22.20;99.90
43842;DHT22;29495;49.970;20.842;2022-09-09T07:03:59;22.40;99.90
43842;DHT22;29495;49.970;20.842;2022-09-09T07:06:28;22.10;99.90
43842;DHT22;29495;49.970;20.842;2022-09-09T07:09:00;22.10;99.90
43842;DHT22;29495;49.970;20.842;2022-09-09T07:11:30;22.00;99.90
43842;DHT22;29495;49.970;20.842;2022-09-09T07:13:58;21.80;99.90
43842;DHT22;29495;49.970;20.842;2022-09-09T07:16:26;21.40;99.90
43842;DHT22;29495;49.970;20.842;2022-09-09T07:18:55;21.50;99.90
43842;DHT22;29495;49.970;20.842;2022-09-09T07:21:24;21.60;99.90
43842;DHT22;29495;49.970;20.842;2022-09-09T07:23:52;21.60;99.90
43842;DHT22;29495;49.970;20.842;2022-09-09T07:26:21;21.70;99.90
43842;DHT22;29495;49.970;20.842;2022-09-09T07:28:48;22.20;99.90
43842;DHT22;29495;49.970;20.842;2022-09-09T07:31:16;23.20;99.90
43842;DHT22;29495;49.970;20.842;2022-09-09T07:33:44;24.30;99.90
43842;DHT22;29495;49.970;20.842;2022-09-09T07:36:16;24.00;99.90
43842;DHT22;29495;49.970;20.842;2022-09-09T07:38:48;24.30;99.90
43842;DHT22;29495;49.970;20.842;2022-09-09T07:41:20;25.30;99.90
43842;DHT22;29495;49.970;20.842;2022-09-09T07:43:48;25.30;99.90
43842;DHT22;29495;49.970;20.842;2022-09-09T07:46:17;24.70;99.90
43842;DHT22;29495;49.970;20.842;2022-09-09T07:48:50;25.30;99.90
43842;DHT22;29495;49.970;20.842;2022-09-09T07:51:20;25.50;99.90
43842;DHT22;29495;49.970;20.842;2022-09-09T07:53:55;24.80;99.90
43842;DHT22;29495;49.970;20.842;2022-09-09T07:56:23;25.20;99.90
43842;DHT22;29495;49.970;20.842;2022-09-09T07:58:51;24.60;99.90
43842;DHT22;29495;49.970;20.842;2022-09-09T08:01:20;24.40;99.90
43842;DHT22;29495;49.970;20.842;2022-09-09T08:03:53;24.70;99.90
43842;DHT22;29495;49.970;20.842;2022-09-09T08:06:19;24.40;99.90
43842;DHT22;29495;49.970;20.842;2022-09-09T08:08:50;24.10;99.90
43842;DHT22;29495;49.970;20.842;2022-09-09T08:11:16;24.20;99.90
43842;DHT22;29495;49.970;20.842;2022-09-09T08:13:43;24.00;99.90
43842;DHT22;29495;49.970;20.842;2022-09-09T08:16:24;24.20;99.90
43842;DHT22;29495;49.970;20.842;2022-09-09T08:18:51;24.20;99.90
43842;DHT22;29495;49.970;20.842;2022-09-09T08:21:20;24.10;99.90
43842;DHT22;29495;49.970;20.842;2022-09-09T08:23:47;24.20;99.90
43842;DHT22;29495;49.970;20.842;2022-09-09T08:26:23;24.60;99.90
43842;DHT22;29495;49.970;20.842;2022-09-09T08:28:51;24.90;99.90
43842;DHT22;29495;49.970;20.842;2022-09-09T08:31:22;24.70;99.90
43842;DHT22;29495;49.970;20.842;2022-09-09T08:33:48;24.60;99.90
43842;DHT22;29495;49.970;20.842;2022-09-09T08:36:18;24.80;99.90
43842;DHT22;29495;49.970;20.842;2022-09-09T08:38:50;25.10;99.90
43842;DHT22;29495;49.970;20.842;2022-09-09T08:49:57;24.10;99.90
43842;DHT22;29495;49.970;20.842;2022-09-09T08:52:30;24.40;99.90
43842;DHT22;29495;49.970;20.842;2022-09-09T08:55:03;24.60;99.90
43842;DHT22;29495;49.970;20.842;2022-09-09T08:57:38;24.80;99.90
43842;DHT22;29495;49.970;20.842;2022-09-09T09:00:07;25.00;99.90
43842;DHT22;29495;49.970;20.842;2022-09-09T09:08:39;24.20;99.90
43842;DHT22;29495;49.970;20.842;2022-09-09T09:11:09;23.90;99.90
43842;DHT22;29495;49.970;20.842;2022-09-09T09:16:22;24.00;99.90
43842;DHT22;29495;49.970;20.842;2022-09-09T09:18:51;24.30;99.90
43842;DHT22;29495;49.970;20.842;2022-09-09T09:23:58;24.30;99.90
43842;DHT22;29495;49.970;20.842;2022-09-09T09:26:35;24.50;99.90
43842;DHT22;29495;49.970;20.842;2022-09-09T09:29:14;24.40;99.90
43842;DHT22;29495;49.970;20.842;2022-09-09T09:31:56;24.50;99.90
43842;DHT22;29495;49.970;20.842;2022-09-09T09:34:27;24.60;99.90
43842;DHT22;29495;49.970;20.842;2022-09-09T09:36:57;24.70;99.90
43842;DHT22;29495;49.970;20.842;2022-09-09T09:39:29;24.60;99.90
43842;DHT22;29495;49.970;20.842;2022-09-09T09:42:14;24.50;99.90
43842;DHT22;29495;49.970;20.842;2022-09-09T09:44:44;24.60;99.90
43842;DHT22;29495;49.970;20.842;2022-09-09T09:47:19;24.30;99.90
43842;DHT22;29495;49.970;20.842;2022-09-09T09:49:58;24.40;99.90
43842;DHT22;29495;49.970;20.842;2022-09-09T09:52:28;24.10;99.90
43842;DHT22;29495;49.970;20.842;2022-09-09T09:54:55;24.50;99.90
43842;DHT22;29495;49.970;20.842;2022-09-09T09:57:28;24.70;99.90
43842;DHT22;29495;49.970;20.842;2022-09-09T10:00:17;25.10;99.10
43842;DHT22;29495;49.970;20.842;2022-09-09T10:02:51;24.90;99.70
43842;DHT22;29495;49.970;20.842;2022-09-09T10:05:24;25.30;99.90
43842;DHT22;29495;49.970;20.842;2022-09-09T10:08:12;25.60;99.90
43842;DHT22;29495;49.970;20.842;2022-09-09T10:16:44;26.30;97.60
43842;DHT22;29495;49.970;20.842;2022-09-09T10:19:31;26.30;97.20
43842;DHT22;29495;49.970;20.842;2022-09-09T10:28:07;26.70;97.10
43842;DHT22;29495;49.970;20.842;2022-09-09T10:34:19;26.80;94.40
43842;DHT22;29495;49.970;20.842;2022-09-09T10:36:49;26.50;94.40
43842;DHT22;29495;49.970;20.842;2022-09-09T10:41:51;26.90;94.30
43842;DHT22;29495;49.970;20.842;2022-09-09T10:47:20;27.40;93.60
43842;DHT22;29495;49.970;20.842;2022-09-09T10:55:41;27.00;92.80
43842;DHT22;29495;49.970;20.842;2022-09-09T11:01:22;26.90;91.90
43842;DHT22;29495;49.970;20.842;2022-09-09T11:03:57;27.20;92.00
43842;DHT22;29495;49.970;20.842;2022-09-09T11:06:30;26.80;89.60
43842;DHT22;29495;49.970;20.842;2022-09-09T11:09:00;26.70;90.00
43842;DHT22;29495;49.970;20.842;2022-09-09T11:11:37;26.40;91.70
43842;DHT22;29495;49.970;20.842;2022-09-09T11:14:10;25.60;91.60
43842;DHT22;29495;49.970;20.842;2022-09-09T11:17:00;25.40;92.60
43842;DHT22;29495;49.970;20.842;2022-09-09T11:19:44;25.00;92.60
43842;DHT22;29495;49.970;20.842;2022-09-09T11:28:24;24.50;96.20
43842;DHT22;29495;49.970;20.842;2022-09-09T11:39:07;25.20;96.40
43842;DHT22;29495;49.970;20.842;2022-09-09T11:41:38;25.30;95.20
43842;DHT22;29495;49.970;20.842;2022-09-09T11:44:28;25.10;96.10
43842;DHT22;29495;49.970;20.842;2022-09-09T11:46:55;25.10;94.60
43842;DHT22;29495;49.970;20.842;2022-09-09T11:49:40;24.90;94.40
43842;DHT22;29495;49.970;20.842;2022-09-09T11:52:44;24.90;94.90
43842;DHT22;29495;49.970;20.842;2022-09-09T11:55:30;24.90;95.40
43842;DHT22;29495;49.970;20.842;2022-09-09T11:58:15;24.90;96.30
43842;DHT22;29495;49.970;20.842;2022-09-09T12:00:47;25.00;96.00
43842;DHT22;29495;49.970;20.842;2022-09-09T12:03:50;25.20;94.00
43842;DHT22;29495;49.970;20.842;2022-09-09T12:06:29;25.30;93.80
43842;DHT22;29495;49.970;20.842;2022-09-09T12:10:05;25.20;90.80
43842;DHT22;29495;49.970;20.842;2022-09-09T12:12:28;25.40;90.10
43842;DHT22;29495;49.970;20.842;2022-09-09T12:15:01;25.70;85.00
43842;DHT22;29495;49.970;20.842;2022-09-09T12:17:31;25.70;84.60
43842;DHT22;29495;49.970;20.842;2022-09-09T12:28:18;26.20;88.40
43842;DHT22;29495;49.970;20.842;2022-09-09T12:31:12;26.50;85.40
43842;DHT22;29495;49.970;20.842;2022-09-09T12:33:44;26.70;85.80
43842;DHT22;29495;49.970;20.842;2022-09-09T12:36:19;26.80;87.10
43842;DHT22;29495;49.970;20.842;2022-09-09T12:38:46;26.90;84.90
43842;DHT22;29495;49.970;20.842;2022-09-09T12:41:24;27.10;82.90
43842;DHT22;29495;49.970;20.842;2022-09-09T12:43:50;27.30;80.20
43842;DHT22;29495;49.970;20.842;2022-09-09T12:46:43;27.10;82.30
43842;DHT22;29495;49.970;20.842;2022-09-09T12:49:32;27.20;79.80
43842;DHT22;29495;49.970;20.842;2022-09-09T12:52:26;27.30;76.60
43842;DHT22;29495;49.970;20.842;2022-09-09T12:54:52;27.20;76.10
43842;DHT22;29495;49.970;20.842;2022-09-09T12:57:21;27.00;73.80
43842;DHT22;29495;49.970;20.842;2022-09-09T12:59:48;27.10;74.70
43842;DHT22;29495;49.970;20.842;2022-09-09T13:02:19;26.90;74.70
43842;DHT22;29495;49.970;20.842;2022-09-09T13:04:45;26.80;74.30
43842;DHT22;29495;49.970;20.842;2022-09-09T13:07:13;26.70;75.40
43842;DHT22;29495;49.970;20.842;2022-09-09T13:09:39;26.50;77.70
43842;DHT22;29495;49.970;20.842;2022-09-09T13:12:11;26.40;77.70
43842;DHT22;29495;49.970;20.842;2022-09-09T13:14:39;26.30;76.00
43842;DHT22;29495;49.970;20.842;2022-09-09T13:17:06;26.20;78.90
43842;DHT22;29495;49.970;20.842;2022-09-09T13:19:36;26.20;83.20
43842;DHT22;29495;49.970;20.842;2022-09-09T13:22:26;26.40;78.50
43842;DHT22;29495;49.970;20.842;2022-09-09T13:25:23;26.10;76.50
43842;DHT22;29495;49.970;20.842;2022-09-09T13:27:55;26.20;77.50
43842;DHT22;29495;49.970;20.842;2022-09-09T13:35:48;26.10;85.80
43842;DHT22;29495;49.970;20.842;2022-09-09T13:38:15;25.90;84.80
43842;DHT22;29495;49.970;20.842;2022-09-09T13:40:55;25.70;84.00
43842;DHT22;29495;49.970;20.842;2022-09-09T13:43:24;25.20;86.40
43842;DHT22;29495;49.970;20.842;2022-09-09T13:45:59;25.10;88.60
43842;DHT22;29495;49.970;20.842;2022-09-09T13:48:27;25.40;90.20
43842;DHT22;29495;49.970;20.842;2022-09-09T13:51:04;25.50;90.60
43842;DHT22;29495;49.970;20.842;2022-09-09T13:53:31;25.60;88.60
43842;DHT22;29495;49.970;20.842;2022-09-09T13:55:58;25.80;90.70
43842;DHT22;29495;49.970;20.842;2022-09-09T13:58:28;25.90;86.60
43842;DHT22;29495;49.970;20.842;2022-09-09T14:00:55;25.80;85.70
43842;DHT22;29495;49.970;20.842;2022-09-09T14:03:21;26.00;83.30
43842;DHT22;29495;49.970;20.842;2022-09-09T14:05:47;25.90;83.90
43842;DHT22;29495;49.970;20.842;2022-09-09T14:08:20;26.00;87.70
43842;DHT22;29495;49.970;20.842;2022-09-09T14:10:47;25.90;87.90
43842;DHT22;29495;49.970;20.842;2022-09-09T14:13:13;25.80;85.40
43842;DHT22;29495;49.970;20.842;2022-09-09T14:15:41;25.60;85.00
43842;DHT22;29495;49.970;20.842;2022-09-09T14:18:11;25.60;86.70
43842;DHT22;29495;49.970;20.842;2022-09-09T14:20:38;25.60;85.90
43842;DHT22;29495;49.970;20.842;2022-09-09T14:23:04;25.70;87.40
43842;DHT22;29495;49.970;20.842;2022-09-09T14:25:30;25.70;89.10
43842;DHT22;29495;49.970;20.842;2022-09-09T14:27:57;25.70;86.10
43842;DHT22;29495;49.970;20.842;2022-09-09T14:30:23;25.80;86.90
43842;DHT22;29495;49.970;20.842;2022-09-09T14:32:49;25.80;86.60
43842;DHT22;29495;49.970;20.842;2022-09-09T14:35:15;25.50;83.90
43842;DHT22;29495;49.970;20.842;2022-09-09T14:37:42;25.40;84.10
43842;DHT22;29495;49.970;20.842;2022-09-09T14:40:09;25.70;86.80
43842;DHT22;29495;49.970;20.842;2022-09-09T14:42:36;25.50;83.20
43842;DHT22;29495;49.970;20.842;2022-09-09T14:45:02;25.50;84.00
43842;DHT22;29495;49.970;20.842;2022-09-09T14:47:28;25.60;83.40
43842;DHT22;29495;49.970;20.842;2022-09-09T14:49:54;25.70;82.70
43842;DHT22;29495;49.970;20.842;2022-09-09T14:52:21;25.60;83.10
43842;DHT22;29495;49.970;20.842;2022-09-09T14:54:47;25.70;87.00
43842;DHT22;29495;49.970;20.842;2022-09-09T14:57:13;25.60;81.40
43842;DHT22;29495;49.970;20.842;2022-09-09T14:59:39;25.50;80.60
43842;DHT22;29495;49.970;20.842;2022-09-09T15:02:05;25.30;79.40
43842;DHT22;29495;49.970;20.842;2022-09-09T15:04:31;25.40;79.80
43842;DHT22;29495;49.970;20.842;2022-09-09T15:06:57;25.20;79.60
43842;DHT22;29495;49.970;20.842;2022-09-09T15:09:24;25.20;84.00
43842;DHT22;29495;49.970;20.842;2022-09-09T15:11:50;25.10;84.30
43842;DHT22;29495;49.970;20.842;2022-09-09T15:14:16;25.10;88.90
43842;DHT22;29495;49.970;20.842;2022-09-09T15:16:42;25.10;90.60
43842;DHT22;29495;49.970;20.842;2022-09-09T15:19:08;25.10;89.40
43842;DHT22;29495;49.970;20.842;2022-09-09T15:21:36;24.90;88.80
43842;DHT22;29495;49.970;20.842;2022-09-09T15:24:02;24.90;92.00
43842;DHT22;29495;49.970;20.842;2022-09-09T15:26:28;25.00;92.00
43842;DHT22;29495;49.970;20.842;2022-09-09T15:28:55;25.00;91.10
43842;DHT22;29495;49.970;20.842;2022-09-09T15:31:29;25.10;91.20
43842;DHT22;29495;49.970;20.842;2022-09-09T15:33:58;25.10;91.70
43842;DHT22;29495;49.970;20.842;2022-09-09T15:39:01;25.30;88.70
43842;DHT22;29495;49.970;20.842;2022-09-09T15:41:28;25.20;90.50
43842;DHT22;29495;49.970;20.842;2022-09-09T15:43:55;25.20;88.50
43842;DHT22;29495;49.970;20.842;2022-09-09T15:46:40;25.20;89.10
43842;DHT22;29495;49.970;20.842;2022-09-09T15:49:11;25.10;90.30
43842;DHT22;29495;49.970;20.842;2022-09-09T15:51:42;25.10;91.30
43842;DHT22;29495;49.970;20.842;2022-09-09T15:54:11;25.10;92.80
43842;DHT22;29495;49.970;20.842;2022-09-09T15:56:38;24.90;95.50
43842;DHT22;29495;49.970;20.842;2022-09-09T15:59:04;24.70;95.60
43842;DHT22;29495;49.970;20.842;2022-09-09T16:01:31;24.60;99.00
43842;DHT22;29495;49.970;20.842;2022-09-09T16:03:58;24.50;98.80
43842;DHT22;29495;49.970;20.842;2022-09-09T16:06:26;24.50;98.10
43842;DHT22;29495;49.970;20.842;2022-09-09T16:08:55;24.60;97.70
43842;DHT22;29495;49.970;20.842;2022-09-09T16:11:31;24.60;99.00
43842;DHT22;29495;49.970;20.842;2022-09-09T16:13:58;24.50;99.90
43842;DHT22;29495;49.970;20.842;2022-09-09T16:16:26;24.50;99.90
43842;DHT22;29495;49.970;20.842;2022-09-09T16:18:55;24.20;99.90
43842;DHT22;29495;49.970;20.842;2022-09-09T16:21:25;24.20;99.90
43842;DHT22;29495;49.970;20.842;2022-09-09T16:23:55;24.30;99.90
43842;DHT22;29495;49.970;20.842;2022-09-09T16:26:22;24.20;99.90
43842;DHT22;29495;49.970;20.842;2022-09-09T16:28:49;24.00;99.90
43842;DHT22;29495;49.970;20.842;2022-09-09T16:31:21;23.90;99.90
43842;DHT22;29495;49.970;20.842;2022-09-09T16:33:48;24.00;99.90
43842;DHT22;29495;49.970;20.842;2022-09-09T16:36:23;23.80;99.90
43842;DHT22;29495;49.970;20.842;2022-09-09T16:38:53;23.60;99.90
43842;DHT22;29495;49.970;20.842;2022-09-09T16:41:21;23.60;99.90
43842;DHT22;29495;49.970;20.842;2022-09-09T16:43:47;23.50;99.90
43842;DHT22;29495;49.970;20.842;2022-09-09T16:46:19;23.30;99.90
43842;DHT22;29495;49.970;20.842;2022-09-09T16:48:46;23.20;99.90
43842;DHT22;29495;49.970;20.842;2022-09-09T16:51:21;23.10;99.90
43842;DHT22;29495;49.970;20.842;2022-09-09T16:53:49;23.00;99.90
43842;DHT22;29495;49.970;20.842;2022-09-09T16:56:17;23.00;99.90
43842;DHT22;29495;49.970;20.842;2022-09-09T16:58:52;22.90;99.90
43842;DHT22;29495;49.970;20.842;2022-09-09T17:01:19;22.60;99.90
43842;DHT22;29495;49.970;20.842;2022-09-09T17:03:45;22.40;99.90
43842;DHT22;29495;49.970;20.842;2022-09-09T17:06:13;22.30;99.90
43842;DHT22;29495;49.970;20.842;2022-09-09T17:08:39;22.00;99.90
43842;DHT22;29495;49.970;20.842;2022-09-09T17:11:14;21.90;99.90
43842;DHT22;29495;49.970;20.842;2022-09-09T17:13:42;21.70;99.90
43842;DHT22;29495;49.970;20.842;2022-09-09T17:16:09;21.80;99.90
43842;DHT22;29495;49.970;20.842;2022-09-09T17:18:36;21.50;99.90
43842;DHT22;29495;49.970;20.842;2022-09-09T17:21:08;21.30;99.90
43842;DHT22;29495;49.970;20.842;2022-09-09T17:23:35;21.30;99.90
43842;DHT22;29495;49.970;20.842;2022-09-09T17:26:05;21.30;99.90
43842;DHT22;29495;49.970;20.842;2022-09-09T17:28:34;20.90;99.90
43842;DHT22;29495;49.970;20.842;2022-09-09T17:31:04;20.80;99.90
43842;DHT22;29495;49.970;20.842;2022-09-09T17:33:34;20.80;99.90
43842;DHT22;29495;49.970;20.842;2022-09-09T17:36:02;20.70;99.90
43842;DHT22;29495;49.970;20.842;2022-09-09T17:38:29;20.80;99.90
43842;DHT22;29495;49.970;20.842;2022-09-09T17:41:06;20.80;99.90
43842;DHT22;29495;49.970;20.842;2022-09-09T17:43:33;20.80;99.90
43842;DHT22;29495;49.970;20.842;2022-09-09T17:46:10;20.80;99.90
43842;DHT22;29495;49.970;20.842;2022-09-09T17:48:37;20.80;99.90
43842;DHT22;29495;49.970;20.842;2022-09-09T17:51:04;20.80;99.90
43842;DHT22;29495;49.970;20.842;2022-09-09T17:53:35;20.80;99.90